Terminal Aerodrome Forecast
Issued by NWS

Home | Current Version | Previous Version | Text Only | Print | Product List | Glossary On
Versions: 1 2 3 4 5 6 7 8 9 10 11 12 13 14 15 16 17 18 19 20 21 22 23 24 25 26 27 28 29 30 31 32 33 34 35 36 37 38 39
000
FTAK31 PANC 301739
TAFADU
TAF
PADU 301739Z 3018/0118 09004KT 1/4SM FG VV002
      TEMPO 3018/3022 1SM BR OVC003
     FM302200 VRB04KT 1SM BR SCT003 OVC010
     FM010100 12005KT P6SM VCFG FEW008 BKN025
     FM010900 VRB03KT 1SM BR OVC003=

USA.gov is the U.S. government's official web portal to all federal, state and local government web resources and services.